Time;durP1;ratioP1;P1;durP2;ratioP2;P2;SDS_P1;SDS_P2;PMS_P1;PMS_P2;Temp;Humidity;BMP_temperature;BMP_pressure;BME280_temperature;BME280_humidity;BME280_pressure;Samples;Min_cycle;Max_cycle;Signal;HPM_P1;HPM_P2
2022/05/18 00:01:23;;;;;;;17.42;15.82;;;14.70;99.90;;;-141.84;100.00;16669.03;5070876;28;20668;-63
2022/05/18 00:03:52;;;;;;;16.25;14.85;;;14.60;99.90;;;-141.84;100.00;16644.66;5071727;28;20232;-66
2022/05/18 00:06:20;;;;;;;16.58;15.00;;;14.70;99.90;;;-141.84;100.00;16685.25;5071609;28;20262;-65
2022/05/18 00:08:48;;;;;;;16.05;14.55;;;14.60;99.90;;;-141.84;100.00;16691.34;5071540;28;20211;-65
2022/05/18 00:11:19;;;;;;;16.27;14.77;;;14.60;99.90;;;-141.84;100.00;16691.34;5071793;28;20207;-64
2022/05/18 00:13:51;;;;;;;16.80;15.30;;;14.50;99.90;;;-141.84;100.00;16677.16;5072329;28;20184;-63
2022/05/18 00:16:23;;;;;;;18.58;16.77;;;14.50;99.90;;;-141.84;100.00;16662.94;5071521;28;20211;-64
2022/05/18 00:18:51;;;;;;;18.58;16.83;;;14.50;99.90;;;-141.84;100.00;16648.72;5071313;28;20633;-65
2022/05/18 00:21:21;;;;;;;19.63;17.67;;;14.50;99.90;;;-141.84;100.00;16675.13;5071061;28;20694;-64
2022/05/18 00:23:49;;;;;;;17.88;16.27;;;14.50;99.90;;;-141.84;100.00;16654.81;5071045;28;20204;-64
2022/05/18 00:26:17;;;;;;;19.65;17.83;;;14.60;99.90;;;-141.84;100.00;16648.72;5071007;28;20200;-64
2022/05/18 00:28:45;;;;;;;18.65;16.75;;;14.60;99.90;;;-141.84;100.00;16671.06;5071137;28;20280;-64
2022/05/18 00:31:18;;;;;;;18.90;17.15;;;14.60;99.90;;;-141.84;100.00;16650.75;5071088;28;20473;-64
2022/05/18 00:33:47;;;;;;;17.77;16.25;;;14.60;99.90;;;-141.84;100.00;16679.19;5071072;28;20231;-64
2022/05/18 00:36:15;;;;;;;19.52;17.75;;;14.50;99.90;;;-141.84;100.00;16636.53;5071069;28;20311;-65
2022/05/18 00:38:43;;;;;;;20.65;18.73;;;14.50;99.90;;;-141.84;100.00;16650.75;5070812;28;20280;-64
2022/05/18 00:41:12;;;;;;;19.80;17.90;;;14.50;99.90;;;-141.84;100.00;16656.84;5071857;28;20189;-64
2022/05/18 00:43:44;;;;;;;20.27;18.38;;;14.40;99.90;;;-141.84;100.00;16695.41;5070797;28;20570;-66
2022/05/18 00:46:16;;;;;;;19.15;17.30;;;14.40;99.90;;;-141.84;100.00;16675.13;5071123;28;20272;-64
2022/05/18 00:48:52;;;;;;;20.50;18.48;;;14.40;99.90;;;-141.84;100.00;16646.69;5071607;28;20189;-66
2022/05/18 00:51:28;;;;;;;22.08;20.08;;;14.40;99.90;;;-141.84;100.00;16644.66;5071538;28;20210;-66
2022/05/18 00:54:05;;;;;;;21.52;19.42;;;14.40;99.90;;;-141.84;100.00;16648.72;5071002;28;20263;-65
2022/05/18 00:56:41;;;;;;;19.98;18.17;;;14.40;99.90;;;-141.84;100.00;16624.34;5070814;28;20300;-65
2022/05/18 00:59:14;;;;;;;21.13;19.13;;;14.40;99.90;;;-141.84;100.00;16671.06;5070925;28;20224;-64
2022/05/18 01:01:45;;;;;;;21.00;19.10;;;14.40;99.90;;;-141.84;100.00;16608.09;5070951;28;20299;-64
2022/05/18 01:04:16;;;;;;;22.27;20.10;;;14.50;99.90;;;-141.84;100.00;16632.47;5070973;28;20192;-64
2022/05/18 01:06:51;;;;;;;20.33;18.50;;;14.50;99.90;;;-141.84;100.00;16632.47;5070574;28;20268;-64
2022/05/18 01:09:26;;;;;;;20.83;18.85;;;14.50;99.90;;;-141.84;100.00;16632.47;5070539;28;20218;-64
2022/05/18 01:11:55;;;;;;;22.33;19.98;;;14.50;99.90;;;-141.84;100.00;16652.78;5071356;28;20184;-65
2022/05/18 01:14:29;;;;;;;21.48;19.48;;;14.40;99.90;;;-141.84;100.00;16648.72;5070200;28;20277;-64
2022/05/18 01:16:59;;;;;;;21.20;19.20;;;14.40;99.90;;;-141.84;100.00;16628.41;5070995;28;20208;-66
2022/05/18 01:19:36;;;;;;;22.58;20.48;;;14.40;99.90;;;-141.84;100.00;16630.44;5070662;28;20224;-64
2022/05/18 01:22:19;;;;;;;21.17;19.27;;;14.40;99.90;;;-141.84;100.00;16612.16;5070457;28;20580;-65
2022/05/18 01:25:02;;;;;;;21.85;19.80;;;14.40;99.90;;;-141.84;100.00;16602.00;5070595;28;20180;-64
2022/05/18 01:27:31;;;;;;;22.08;20.10;;;14.40;99.90;;;-141.84;100.00;16679.19;5071126;28;20189;-64
2022/05/18 01:29:59;;;;;;;21.75;19.85;;;14.30;99.90;;;-141.84;100.00;16624.34;5070530;28;20267;-65
2022/05/18 01:32:42;;;;;;;21.23;19.27;;;14.30;99.90;;;-141.84;100.00;16577.63;5070474;28;20210;-64
2022/05/18 01:35:13;;;;;;;23.52;21.25;;;14.30;99.90;;;-141.84;100.00;16634.50;5070501;28;20605;-65
2022/05/18 01:37:41;;;;;;;23.83;21.58;;;14.30;99.90;;;-141.84;100.00;16620.28;5070232;28;20316;-65
2022/05/18 01:40:21;;;;;;;23.52;21.33;;;14.30;99.90;;;-141.84;100.00;16612.16;5069985;28;20208;-64
2022/05/18 01:42:59;;;;;;;22.92;20.77;;;14.30;99.90;;;-141.84;100.00;16636.53;5070480;28;20295;-63
2022/05/18 01:45:27;;;;;;;22.52;20.52;;;14.30;99.90;;;-141.84;100.00;16608.09;5070055;28;20189;-64
2022/05/18 01:47:55;;;;;;;22.40;20.33;;;14.30;99.90;;;-141.84;100.00;16671.06;5069963;28;20192;-64
2022/05/18 01:50:29;;;;;;;23.50;21.25;;;14.20;99.90;;;-141.84;100.00;16616.22;5070263;28;20619;-65
2022/05/18 01:52:57;;;;;;;23.00;20.90;;;14.20;99.90;;;-141.84;100.00;16644.66;5070027;28;20624;-65
2022/05/18 01:55:25;;;;;;;22.42;20.33;;;14.10;99.90;;;-141.84;100.00;16620.28;5070163;28;20236;-65
2022/05/18 01:57:54;;;;;;;20.98;19.10;;;14.10;99.90;;;-141.84;100.00;16612.16;5069327;28;20951;-65
2022/05/18 02:00:23;;;;;;;23.95;21.73;;;14.00;99.90;;;-141.84;100.00;16636.53;5070279;28;20571;-64
2022/05/18 02:02:51;;;;;;;22.85;20.63;;;14.10;99.90;;;-141.84;100.00;16618.25;5070209;28;20240;-64
2022/05/18 02:05:19;;;;;;;22.83;20.67;;;14.00;99.90;;;-141.84;100.00;16622.31;5069923;28;20307;-65
2022/05/18 02:07:48;;;;;;;22.70;20.50;;;14.00;99.90;;;-141.84;100.00;16650.75;5069934;28;20201;-63
2022/05/18 02:10:16;;;;;;;22.60;20.48;;;13.90;99.90;;;-141.84;100.00;16689.31;5069869;28;20291;-64
2022/05/18 02:12:44;;;;;;;22.48;20.27;;;13.90;99.90;;;-141.84;100.00;16626.38;5070312;28;20196;-64
2022/05/18 02:15:13;;;;;;;22.73;20.70;;;13.90;99.90;;;-141.84;100.00;16646.69;5069926;28;20207;-65
2022/05/18 02:17:41;;;;;;;24.30;22.00;;;13.90;99.90;;;-141.84;100.00;16644.66;5069663;28;20675;-63
2022/05/18 02:20:12;;;;;;;23.80;21.63;;;13.90;99.90;;;-141.84;100.00;16642.63;5070936;28;20292;-63
2022/05/18 02:22:40;;;;;;;23.57;21.37;;;13.90;99.90;;;-141.84;100.00;16654.81;5070612;28;20209;-66
2022/05/18 02:25:09;;;;;;;24.92;22.52;;;13.80;99.90;;;-141.84;100.00;16654.81;5071338;28;20295;-65
2022/05/18 02:27:37;;;;;;;24.45;22.20;;;13.90;99.90;;;-141.84;100.00;16636.53;5073564;28;20207;-65
2022/05/18 02:30:09;;;;;;;25.25;22.85;;;13.90;99.90;;;-141.84;100.00;16646.69;5073894;28;20237;-65
2022/05/18 02:32:38;;;;;;;23.92;21.65;;;13.90;99.90;;;-141.84;100.00;16626.38;5073584;28;20551;-64
2022/05/18 02:35:08;;;;;;;24.80;22.60;;;13.90;99.90;;;-141.84;100.00;16642.63;5073217;28;20661;-64
2022/05/18 02:37:36;;;;;;;26.05;23.50;;;13.90;99.90;;;-141.84;100.00;16658.88;5073299;28;20221;-66
2022/05/18 02:40:07;;;;;;;25.20;22.80;;;13.90;99.90;;;-141.84;100.00;16626.38;5073192;28;20205;-64
2022/05/18 02:42:35;;;;;;;25.35;23.05;;;14.00;99.90;;;-141.84;100.00;16664.97;5073576;28;20299;-64
2022/05/18 02:45:06;;;;;;;22.48;20.58;;;14.00;99.90;;;-141.84;100.00;16608.09;5073564;28;20220;-64
2022/05/18 02:47:34;;;;;;;23.98;21.67;;;14.00;99.90;;;-141.84;100.00;16628.41;5073177;28;20192;-65
2022/05/18 02:50:05;;;;;;;22.92;20.92;;;14.00;99.90;;;-141.84;100.00;16628.41;5073090;28;20196;-63
2022/05/18 02:52:34;;;;;;;23.42;20.95;;;14.10;99.90;;;-141.84;100.00;16679.19;5073091;28;20265;-64
2022/05/18 02:57:50;;;;;;;22.90;20.83;;;14.10;99.90;;;-141.84;100.00;16628.41;5073375;28;20672;-64
2022/05/18 03:00:19;;;;;;;23.23;21.02;;;14.20;99.90;;;-141.84;100.00;16636.53;5072857;28;20200;-65
2022/05/18 03:02:47;;;;;;;23.55;21.48;;;14.20;99.90;;;-141.84;100.00;16654.81;5073078;28;20207;-63
2022/05/18 03:05:17;;;;;;;23.80;21.58;;;14.10;99.90;;;-141.84;100.00;16591.84;5073165;28;20231;-64
2022/05/18 03:07:45;;;;;;;24.00;21.77;;;14.10;99.90;;;-141.84;100.00;16610.13;5073291;28;20224;-65
2022/05/18 03:10:15;;;;;;;23.30;20.92;;;14.00;99.90;;;-141.84;100.00;16632.47;5073311;28;20297;-63
2022/05/18 03:12:44;;;;;;;22.90;20.85;;;14.00;99.90;;;-141.84;100.00;16612.16;5072797;28;20281;-64
2022/05/18 03:15:14;;;;;;;24.27;21.87;;;14.00;99.90;;;-141.84;100.00;16608.09;5072848;28;20197;-64
2022/05/18 03:17:42;;;;;;;24.10;21.70;;;14.00;99.90;;;-141.84;100.00;16606.06;5072420;28;20807;-63
2022/05/18 03:23:33;;;;;;;24.13;21.83;;;13.90;99.90;;;-141.84;100.00;16616.22;5072885;28;20209;-64
2022/05/18 03:25:47;;;;;;;24.77;22.38;;;13.90;99.90;;;-141.84;100.00;16614.19;5072584;28;20271;-63
2022/05/18 03:28:15;;;;;;;23.73;21.45;;;13.90;99.90;;;-141.84;100.00;16604.03;5072502;28;20235;-64
2022/05/18 03:30:43;;;;;;;24.85;22.45;;;13.90;99.90;;;-141.84;100.00;16610.13;5072164;28;20208;-66
2022/05/18 03:33:11;;;;;;;23.45;21.25;;;13.90;99.90;;;-141.84;100.00;16624.34;5072500;28;20197;-65
2022/05/18 03:35:40;;;;;;;25.38;22.67;;;14.00;99.90;;;-141.84;100.00;16602.00;5071933;28;20232;-65
2022/05/18 03:38:09;;;;;;;23.30;21.17;;;14.00;99.90;;;-141.84;100.00;16612.16;5071380;28;20216;-64
2022/05/18 03:40:43;;;;;;;24.23;22.02;;;14.00;99.90;;;-141.84;100.00;16612.16;5071917;28;20706;-66
2022/05/18 03:43:11;;;;;;;23.70;21.55;;;14.10;99.90;;;-141.84;100.00;16604.03;5072348;28;20201;-63
2022/05/18 03:45:40;;;;;;;24.35;22.10;;;14.10;99.90;;;-141.84;100.00;16608.09;5072322;28;20577;-64
2022/05/18 03:48:11;;;;;;;24.00;21.77;;;14.10;99.90;;;-141.84;100.00;16640.59;5071928;28;20444;-63
2022/05/18 03:50:40;;;;;;;23.40;21.15;;;14.20;99.90;;;-141.84;100.00;16606.06;5072185;28;20531;-64
2022/05/18 03:53:11;;;;;;;22.60;20.45;;;14.20;99.90;;;-141.84;100.00;16602.00;5072019;28;20200;-64
2022/05/18 03:55:41;;;;;;;21.58;19.55;;;14.30;99.90;;;-141.84;100.00;16610.13;5071873;28;20185;-65
2022/05/18 03:58:10;;;;;;;22.65;20.52;;;14.40;99.90;;;-141.84;100.00;16577.63;5071747;28;20304;-64
2022/05/18 04:00:40;;;;;;;21.42;19.33;;;14.50;99.90;;;-141.84;100.00;16567.47;5071520;28;20664;-64
2022/05/18 04:03:09;;;;;;;21.60;19.45;;;14.50;99.90;;;-141.84;100.00;16543.13;5072495;28;20228;-64
2022/05/18 04:05:38;;;;;;;20.75;18.70;;;14.60;99.90;;;-141.84;100.00;16510.63;5075341;28;20230;-63
2022/05/18 04:08:10;;;;;;;20.50;18.55;;;14.70;99.90;;;-141.84;100.00;16500.47;5071402;28;20196;-65
2022/05/18 04:10:40;;;;;;;19.88;17.98;;;14.80;99.90;;;-141.84;100.00;16506.56;5071464;28;20223;-64
2022/05/18 04:13:12;;;;;;;19.65;17.75;;;14.90;99.90;;;-141.84;99.54;16480.16;5071367;28;20219;-64
2022/05/18 04:15:41;;;;;;;18.00;16.38;;;15.00;99.90;;;-141.84;99.79;16494.38;5071852;28;20279;-64
2022/05/18 04:18:10;;;;;;;19.13;17.20;;;15.10;99.90;;;-141.84;99.91;16514.69;5070846;28;20348;-63
2022/05/18 04:20:40;;;;;;;18.42;16.73;;;15.10;99.90;;;-141.84;99.14;16476.09;5071397;28;20200;-64
2022/05/18 04:23:10;;;;;;;18.30;16.60;;;15.10;99.90;;;-141.84;98.07;16490.31;5071503;28;20587;-65
2022/05/18 04:25:39;;;;;;;16.73;15.30;;;15.20;99.90;;;-141.84;96.37;16492.34;5070892;28;20637;-64
2022/05/18 04:28:08;;;;;;;18.42;16.83;;;15.30;99.90;;;-141.84;96.57;16486.25;5071500;28;20283;-64
2022/05/18 04:30:36;;;;;;;18.20;16.48;;;15.30;99.90;;;-141.84;96.37;16488.28;5070962;28;20564;-65
2022/05/18 04:33:04;;;;;;;19.10;17.38;;;15.30;99.90;;;-141.84;95.65;16492.34;5071147;28;20299;-64
2022/05/18 04:35:32;;;;;;;16.75;15.25;;;15.40;99.90;;;-141.84;95.92;16502.50;5071241;28;20234;-64
2022/05/18 04:38:00;;;;;;;18.35;16.45;;;15.40;99.90;;;-141.84;95.17;16496.41;5070747;28;20237;-64
2022/05/18 04:40:30;;;;;;;15.77;14.48;;;15.50;99.90;;;-141.84;93.85;16577.63;5070456;28;20588;-67
2022/05/18 04:42:57;;;;;;;16.10;14.70;;;15.60;99.90;;;-141.84;93.08;16591.84;5070837;28;20284;-65
2022/05/18 04:45:26;;;;;;;16.67;15.07;;;15.60;99.90;;;-141.84;91.32;16646.69;5071129;28;20243;-64
2022/05/18 04:47:54;;;;;;;16.33;14.93;;;15.80;99.90;;;-141.84;91.44;16673.09;5070643;28;20205;-64
2022/05/18 04:50:23;;;;;;;16.50;15.00;;;15.90;99.90;;;-141.84;91.14;16707.59;5071482;28;20211;-65
2022/05/18 04:53:00;;;;;;;15.93;14.57;;;16.10;99.90;;;-141.84;84.94;17040.66;5081231;28;20231;-65
2022/05/18 04:55:35;;;;;;;13.65;12.45;;;16.90;99.90;;;-141.84;74.41;17723.09;5088883;28;20283;-65
2022/05/18 04:58:07;;;;;;;12.68;11.57;;;18.20;99.90;;;-141.84;65.55;18253.31;5090873;28;20232;-67
2022/05/18 05:00:54;;;;;;;11.48;10.48;;;19.50;99.90;;;-141.84;61.75;18456.47;5089339;28;20256;-65
2022/05/18 05:03:44;;;;;;;11.90;10.82;;;20.60;99.90;;;-141.84;58.61;18663.69;5084116;28;20215;-65
2022/05/18 05:06:23;;;;;;;11.35;10.35;;;21.50;99.90;;;-141.84;55.94;18830.31;5089655;28;20243;-66
2022/05/18 05:09:05;;;;;;;12.05;10.95;;;22.20;99.90;;;-141.84;53.52;18956.28;5088824;28;20253;-64
2022/05/18 05:11:50;;;;;;;11.85;10.88;;;22.60;99.90;;;-141.84;51.05;19112.75;5089090;28;20279;-63
2022/05/18 05:14:32;;;;;;;11.13;10.23;;;23.00;99.90;;;-141.84;51.04;18946.13;5090371;28;20296;-62
2022/05/18 05:17:22;;;;;;;12.35;11.35;;;22.80;99.90;;;-141.84;52.07;18870.94;5094622;28;20208;-63
2022/05/18 05:19:58;;;;;;;13.02;11.98;;;22.40;99.90;;;-141.84;53.98;18777.47;5088956;28;20215;-64
2022/05/18 05:22:34;;;;;;;13.23;12.00;;;21.90;99.90;;;-141.84;54.15;18728.72;5092288;28;20245;-64
2022/05/18 05:25:09;;;;;;;14.10;12.90;;;21.40;99.90;;;-141.84;57.08;18578.38;5087670;28;20258;-64
2022/05/18 05:27:55;;;;;;;13.63;12.43;;;20.90;99.90;;;-141.84;59.62;18460.53;5080111;28;20256;-63
2022/05/18 05:30:31;;;;;;;12.65;11.65;;;20.50;99.90;;;-141.84;60.94;18391.44;5089548;28;20258;-63
2022/05/18 05:33:11;;;;;;;14.32;13.13;;;20.30;99.90;;;-141.84;62.37;18330.50;5087912;28;20223;-64
2022/05/18 05:35:52;;;;;;;14.23;13.02;;;20.10;99.90;;;-141.84;63.31;18263.47;5098390;28;20236;-63
2022/05/18 05:38:31;;;;;;;15.32;13.93;;;19.80;99.90;;;-141.84;64.27;18206.56;5075189;28;20207;-63
2022/05/18 05:41:21;;;;;;;14.45;13.07;;;19.60;99.90;;;-141.84;65.23;18172.03;5102743;28;20268;-63
2022/05/18 05:43:54;;;;;;;13.75;12.43;;;19.50;99.90;;;-141.84;66.18;18113.13;5081650;28;20272;-64
2022/05/18 05:46:27;;;;;;;14.18;12.85;;;19.30;99.90;;;-141.84;66.44;18090.78;5092338;28;20251;-63
2022/05/18 05:49:04;;;;;;;15.18;13.77;;;19.30;99.90;;;-141.84;67.62;18042.03;5090055;28;20232;-64
2022/05/18 05:51:36;;;;;;;14.73;13.43;;;19.10;99.90;;;-141.84;68.78;18001.41;5078642;28;20318;-64
2022/05/18 05:54:11;;;;;;;13.90;12.70;;;18.90;99.90;;;-141.84;69.87;17962.81;5084101;28;20232;-65
2022/05/18 05:56:51;;;;;;;15.40;13.90;;;18.80;99.90;;;-141.84;70.25;17877.47;5078338;28;20235;-64
2022/05/18 05:59:27;;;;;;;15.25;13.77;;;18.70;99.90;;;-141.84;72.22;17891.69;5090795;28;20264;-60
2022/05/18 06:02:09;;;;;;;14.63;13.32;;;18.70;99.90;;;-141.84;71.46;17883.56;5090545;28;20212;-64
2022/05/18 06:04:41;;;;;;;15.75;14.18;;;18.60;99.90;;;-141.84;71.31;17840.91;5063620;28;20292;-64
2022/05/18 06:07:26;;;;;;;14.32;13.02;;;18.60;99.90;;;-141.84;72.62;17784.03;5085935;28;20247;-65
2022/05/18 06:10:02;;;;;;;14.15;12.82;;;18.60;99.90;;;-141.84;72.23;17800.28;5094832;28;20255;-64
2022/05/18 06:12:34;;;;;;;14.90;13.50;;;18.70;99.90;;;-141.84;72.37;17818.56;5083731;28;20279;-63
2022/05/18 06:15:15;;;;;;;15.63;13.98;;;18.80;99.90;;;-141.84;71.66;17784.03;5081372;28;20283;-64
2022/05/18 06:18:01;;;;;;;15.80;14.20;;;18.80;99.90;;;-141.84;70.73;17855.13;5093284;28;20244;-65
2022/05/18 06:20:37;;;;;;;14.90;13.40;;;18.90;99.90;;;-141.84;71.62;17826.69;5091406;28;20259;-64
2022/05/18 06:23:14;;;;;;;14.70;13.38;;;19.00;99.90;;;-141.84;69.56;17853.09;5107946;28;20645;-64
2022/05/18 06:25:51;;;;;;;14.80;13.35;;;19.10;99.90;;;-141.84;69.28;17899.81;5106744;28;20215;-64
2022/05/18 06:28:26;;;;;;;14.43;13.30;;;19.20;99.90;;;-141.84;69.20;17909.97;5117993;28;20235;-64
2022/05/18 06:31:07;;;;;;;15.25;13.25;;;19.40;99.90;;;-141.84;68.61;17948.59;5101840;28;20662;-65
2022/05/18 06:33:43;;;;;;;12.73;11.63;;;19.40;99.90;;;-141.84;69.11;17899.81;5112083;28;20230;-64
2022/05/18 06:36:18;;;;;;;14.35;13.05;;;19.50;99.90;;;-141.84;69.19;17918.09;5093855;28;20232;-64
2022/05/18 06:38:53;;;;;;;14.18;12.77;;;19.60;99.90;;;-141.84;67.80;17997.34;5081341;28;20374;-62
2022/05/18 06:41:28;;;;;;;14.45;13.05;;;19.70;99.90;;;-141.84;68.25;17989.22;5091375;28;20256;-64
2022/05/18 06:44:06;;;;;;;14.88;13.38;;;19.80;99.90;;;-141.84;67.30;18025.78;5104364;28;20184;-63
2022/05/18 06:46:41;;;;;;;12.85;11.70;;;19.70;99.90;;;-141.84;67.71;18009.53;5094164;28;20332;-64
2022/05/18 06:49:18;;;;;;;13.77;12.57;;;19.80;99.90;;;-141.84;66.94;18007.50;5065217;28;20287;-65
2022/05/18 06:52:03;;;;;;;14.05;12.70;;;19.80;99.90;;;-141.84;66.56;18046.09;5090845;28;20322;-64
2022/05/18 06:54:43;;;;;;;14.38;12.80;;;19.90;99.90;;;-141.84;66.40;18044.06;5088822;28;20290;-65
2022/05/18 06:57:35;;;;;;;13.65;12.55;;;19.80;99.90;;;-141.84;66.60;18033.91;5083237;28;20227;-63
2022/05/18 07:00:22;;;;;;;12.88;11.85;;;19.70;99.90;;;-141.84;67.26;18009.53;5083116;28;20296;-64
2022/05/18 07:03:03;;;;;;;14.27;12.90;;;19.80;99.90;;;-141.84;66.32;18054.22;5085265;28;20303;-60
2022/05/18 07:05:36;;;;;;;13.38;12.30;;;19.90;99.90;;;-141.84;65.29;18098.91;5093642;28;20273;-65
2022/05/18 07:08:10;;;;;;;15.27;13.23;;;20.00;99.90;;;-141.84;65.52;18109.06;5103460;28;20213;-62
2022/05/18 07:10:54;;;;;;;16.58;14.07;;;20.00;99.90;;;-141.84;66.31;18048.13;5061288;28;20228;-63
2022/05/18 07:13:30;;;;;;;12.95;11.82;;;19.90;99.90;;;-141.84;66.13;18050.16;5096866;28;20303;-62
2022/05/18 07:16:06;;;;;;;11.98;10.90;;;19.90;99.90;;;-141.84;66.45;18042.03;5082575;28;20239;-65
2022/05/18 07:18:48;;;;;;;13.05;11.85;;;19.90;99.90;;;-141.84;65.86;18023.75;5092013;28;20230;-65
2022/05/18 07:21:44;;;;;;;12.75;11.65;;;19.90;99.90;;;-141.84;65.62;18066.41;5083890;28;20295;-67
2022/05/18 07:24:27;;;;;;;13.15;11.95;;;19.90;99.90;;;-141.84;66.64;18050.16;5093201;28;20228;-65
2022/05/18 07:27:04;;;;;;;13.00;11.65;;;19.90;99.90;;;-141.84;65.25;18109.06;5090190;28;20297;-63
2022/05/18 07:29:47;;;;;;;11.98;10.88;;;20.00;99.90;;;-141.84;65.82;18046.09;5092378;28;20185;-65
2022/05/18 07:32:30;;;;;;;13.23;12.10;;;20.00;99.90;;;-141.84;65.61;18078.59;5101388;28;20224;-62
2022/05/18 07:35:17;;;;;;;12.95;11.75;;;20.00;99.90;;;-141.84;64.83;18109.06;5089837;28;20204;-64
2022/05/18 07:37:48;;;;;;;12.43;11.43;;;20.10;99.90;;;-141.84;64.87;18111.09;5058990;28;20228;-64
2022/05/18 07:40:34;;;;;;;13.93;12.63;;;20.00;99.90;;;-141.84;64.05;18123.28;5088971;28;20227;-65
2022/05/18 07:43:22;;;;;;;13.88;12.57;;;20.10;99.90;;;-141.84;65.51;18090.78;5091084;28;20231;-65
2022/05/18 07:46:02;;;;;;;13.25;12.15;;;20.00;99.90;;;-141.84;65.09;18080.63;5091437;28;20258;-65
2022/05/18 07:48:35;;;;;;;12.20;11.00;;;20.00;99.90;;;-141.84;65.69;18056.25;5088106;28;20737;-65
2022/05/18 07:51:21;;;;;;;14.05;12.68;;;20.00;99.90;;;-141.84;63.72;18159.84;5090983;28;20273;-65
2022/05/18 07:53:57;;;;;;;13.18;11.80;;;20.00;99.90;;;-141.84;65.02;18100.94;5085805;28;20228;-65
2022/05/18 07:56:30;;;;;;;13.43;11.93;;;20.00;99.90;;;-141.84;64.80;18096.88;5079746;28;20210;-64
2022/05/18 07:59:14;;;;;;;12.63;11.40;;;20.00;99.90;;;-141.84;64.90;18084.69;5102993;28;20195;-65
2022/05/18 08:01:54;;;;;;;11.75;10.75;;;20.00;99.90;;;-141.84;65.34;18078.59;5088753;28;20216;-64
2022/05/18 08:04:28;;;;;;;13.82;12.52;;;20.00;99.90;;;-141.84;64.06;18102.97;5092882;28;20228;-65
2022/05/18 08:07:19;;;;;;;12.98;11.88;;;20.10;99.90;;;-141.84;63.98;18115.16;5089688;28;20277;-65
2022/05/18 08:15:55;;;;;;;14.15;12.85;;;20.20;99.90;;;-141.84;63.60;18157.81;5086207;28;20377;-61
2022/05/18 08:18:29;;;;;;;12.10;11.07;;;20.20;99.90;;;-141.84;65.21;18131.41;5082663;28;20691;-65
2022/05/18 08:21:16;;;;;;;12.80;11.60;;;20.20;99.90;;;-141.84;64.23;18143.59;5083047;28;20268;-65
2022/05/18 08:23:52;;;;;;;12.40;11.15;;;20.20;99.90;;;-141.84;62.97;18172.03;5066116;28;20238;-65
2022/05/18 08:26:33;;;;;;;11.65;10.45;;;20.30;99.90;;;-141.84;63.59;18170.00;5069118;28;20189;-65
2022/05/18 08:29:07;;;;;;;12.32;11.23;;;20.40;99.90;;;-141.84;62.70;18222.81;5080319;28;20196;-66
2022/05/18 08:31:45;;;;;;;11.68;10.68;;;20.40;99.90;;;-141.84;62.84;18196.41;5068150;28;20314;-65
2022/05/18 08:34:19;;;;;;;12.82;11.55;;;20.50;99.90;;;-141.84;61.81;18243.16;5073325;28;20257;-64
2022/05/18 08:36:58;;;;;;;11.25;10.25;;;20.60;99.90;;;-141.84;61.69;18232.97;5090259;28;20227;-64
2022/05/18 08:39:36;;;;;;;12.68;11.43;;;20.60;99.90;;;-141.84;61.76;18253.31;5087885;28;20278;-67
2022/05/18 08:42:22;;;;;;;12.18;11.05;;;20.70;99.90;;;-141.84;62.19;18253.31;5088630;28;20243;-65
2022/05/18 08:44:58;;;;;;;11.82;10.63;;;20.80;99.90;;;-141.84;61.82;18230.94;5070016;28;20337;-67
2022/05/18 08:48:05;;;;;;;12.68;11.55;;;20.70;99.90;;;-141.84;60.19;18310.19;5066473;28;20227;-66
2022/05/18 08:50:44;;;;;;;10.50;9.60;;;20.70;99.90;;;-141.84;61.11;18289.88;5064444;28;20324;-61
2022/05/18 08:53:38;;;;;;;12.15;10.95;;;20.80;99.90;;;-141.84;61.05;18304.09;5079518;28;20188;-62
2022/05/18 08:56:28;;;;;;;10.77;9.77;;;20.80;99.90;;;-141.84;60.73;18324.41;5055024;28;20221;-65
2022/05/18 08:59:09;;;;;;;10.75;9.65;;;20.90;99.90;;;-141.84;59.86;18320.34;5059345;28;20225;-66
2022/05/18 09:01:46;;;;;;;9.15;8.32;;;21.00;99.90;;;-141.84;58.93;18354.88;5066658;28;20256;-64
2022/05/18 09:04:47;;;;;;;9.07;8.25;;;21.10;99.90;;;-141.84;58.26;18385.34;5057944;28;20299;-66
2022/05/18 09:07:48;;;;;;;8.90;8.05;;;21.20;99.90;;;-141.84;57.91;18399.56;5083676;28;20236;-66
2022/05/18 09:10:38;;;;;;;9.77;8.55;;;21.30;99.90;;;-141.84;55.85;18444.28;5072349;28;20356;-66
2022/05/18 09:13:10;;;;;;;7.97;7.28;;;21.40;99.90;;;-141.84;55.64;18460.53;5079890;28;20299;-66
2022/05/18 09:16:00;;;;;;;8.20;7.50;;;21.40;99.90;;;-141.84;54.45;18533.66;5084585;28;20269;-65
2022/05/18 09:18:53;;;;;;;7.13;6.53;;;21.50;99.90;;;-141.84;54.81;18513.34;5088696;28;20802;-65
2022/05/18 09:21:39;;;;;;;7.68;6.97;;;21.50;99.90;;;-141.84;54.75;18556.00;5090630;28;20300;-66
2022/05/18 09:24:37;;;;;;;7.82;7.03;;;21.60;99.90;;;-141.84;53.95;18572.25;5074265;28;20287;-65
2022/05/18 09:27:37;;;;;;;7.68;6.97;;;21.70;99.90;;;-141.84;52.41;18610.88;5086187;28;20338;-66
2022/05/18 09:30:27;;;;;;;7.70;6.50;;;21.80;99.90;;;-141.84;53.20;18594.63;5088592;28;20247;-66
2022/05/18 09:33:40;;;;;;;6.88;6.25;;;21.90;99.90;;;-141.84;52.41;18659.63;5085523;28;20232;-66
2022/05/18 09:36:44;;;;;;;7.20;6.32;;;21.90;99.90;;;-141.84;51.72;18679.94;5089943;28;20239;-67
2022/05/18 09:39:26;;;;;;;10.63;6.82;;;22.10;99.90;;;-141.84;52.52;18629.16;5092476;28;20219;-67
2022/05/18 09:42:06;;;;;;;6.80;6.20;;;22.00;99.90;;;-141.84;52.67;18627.13;5092220;28;20228;-66
2022/05/18 09:44:53;;;;;;;6.13;5.65;;;22.00;99.90;;;-141.84;52.21;18700.25;5082710;28;20222;-66
2022/05/18 09:47:40;;;;;;;5.95;5.45;;;22.00;99.90;;;-141.84;51.04;18716.53;5073036;28;20189;-65
2022/05/18 09:50:26;;;;;;;8.30;6.10;;;22.20;99.90;;;-141.84;51.22;18710.44;5083698;28;20683;-65
2022/05/18 09:53:05;;;;;;;6.47;5.88;;;22.20;99.90;;;-141.84;50.73;18718.56;5077997;28;20246;-65
2022/05/18 09:55:40;;;;;;;6.85;6.25;;;22.30;99.90;;;-141.84;50.27;18716.53;5078473;28;20239;-66
2022/05/18 09:58:20;;;;;;;7.60;6.28;;;22.30;99.90;;;-141.84;49.85;18749.03;5091120;28;20239;-65
2022/05/18 10:07:34;;;;;;;6.30;5.50;;;22.30;99.90;;;-141.84;49.31;18805.91;5095335;28;20228;-64
2022/05/18 10:10:30;;;;;;;5.32;4.85;;;22.40;99.90;;;-141.84;49.22;18797.78;5094825;28;20247;-66
2022/05/18 10:13:19;;;;;;;6.30;4.80;;;22.50;99.90;;;-141.84;47.09;18895.31;5083526;28;20282;-65
2022/05/18 10:16:31;;;;;;;5.65;5.15;;;22.70;99.90;;;-141.84;45.69;18968.47;5092497;28;20299;-64
2022/05/18 10:19:19;;;;;;;5.15;4.75;;;22.80;99.90;;;-141.84;46.94;18921.75;5077091;28;20293;-65
2022/05/18 10:22:06;;;;;;;5.65;5.03;;;22.70;99.90;;;-141.84;47.74;18883.13;5090897;28;20238;-65
2022/05/18 10:24:54;;;;;;;5.43;4.93;;;22.70;99.90;;;-141.84;47.43;18887.19;5091187;28;20230;-65
2022/05/18 10:27:38;;;;;;;5.32;4.93;;;22.80;99.90;;;-141.84;47.43;18958.31;5090817;28;20231;-66
2022/05/18 10:30:34;;;;;;;5.47;4.97;;;22.90;99.90;;;-141.84;45.91;18974.56;5096537;28;20232;-65
2022/05/18 10:33:35;;;;;;;4.57;3.90;;;23.00;99.90;;;-141.84;45.00;19049.75;5084835;28;20286;-66
2022/05/18 10:36:23;;;;;;;4.57;4.13;;;23.10;99.90;;;-141.84;45.75;19013.16;5089902;28;20239;-66
2022/05/18 10:39:07;;;;;;;5.03;4.57;;;23.20;99.90;;;-141.84;46.69;18984.72;5081152;28;20228;-64
2022/05/18 10:41:55;;;;;;;5.10;4.70;;;23.10;99.90;;;-141.84;45.39;19037.56;5089455;28;20665;-66
2022/05/18 10:44:40;;;;;;;6.00;4.50;;;23.20;99.90;;;-141.84;43.76;19112.75;5090034;28;20220;-65
2022/05/18 10:47:33;;;;;;;3.55;3.25;;;23.10;99.90;;;-141.84;42.85;19106.66;5102740;28;20189;-65
2022/05/18 10:50:37;;;;;;;4.75;4.35;;;23.10;99.90;;;-141.84;45.18;19057.88;5094858;28;20308;-64